Archival Weather

Granbury Rgnl

Granbury, Texas (KGDJ)

Report from: Monday, January 29, 2024 8:35 PM UTC
Current time: Tuesday, June 18, 2024 1:46 PM UTC

Current weather – Weather history – Daily summaries
Weather forecast

Temperature21.7°C (71.1°F)
Dew point2.1°C (35.8°F)
Winds 5 kts (2.6 m/s, 5.8 mph) West-Northwest (290°)
Visibility10 mi. (16.1 km)
Clouds Sky clear
Altimeter30.23 in.Hg (1024 mB)
Relative humidity27 %
Density altitude541 ft. (165 m)
Remarks Fully automated report
Automated weather observing station with precipitation discriminator
Flight conditions Visual Meteorological Conditions
Raw dataKGDJ 292035Z AUTO 29005KT 10SM CLR 22/02 A3023 RMK AO2 T02170021
An error has occurred. This application may no longer respond until reloaded. Reload 🗙